sensor_id;sensor_type;location;lat;lon;timestamp;P1;durP1;ratioP1;P2;durP2;ratioP2
63193;SDS011;49289;51.670;5.624;2023-06-22T00:00:25;4.80;;;3.80;;
63193;SDS011;49289;51.670;5.624;2023-06-22T00:02:13;4.20;;;3.60;;
63193;SDS011;49289;51.670;5.624;2023-06-22T00:04:01;4.00;;;3.50;;
63193;SDS011;49289;51.670;5.624;2023-06-22T00:05:50;4.80;;;4.00;;
63193;SDS011;49289;51.670;5.624;2023-06-22T00:07:38;5.80;;;3.70;;
63193;SDS011;49289;51.670;5.624;2023-06-22T00:09:26;3.90;;;3.60;;
63193;SDS011;49289;51.670;5.624;2023-06-22T00:11:13;5.70;;;4.30;;
63193;SDS011;49289;51.670;5.624;2023-06-22T00:13:00;7.60;;;4.40;;
63193;SDS011;49289;51.670;5.624;2023-06-22T00:14:47;5.10;;;4.30;;
63193;SDS011;49289;51.670;5.624;2023-06-22T00:16:34;4.80;;;4.30;;
63193;SDS011;49289;51.670;5.624;2023-06-22T00:18:21;7.10;;;4.80;;
63193;SDS011;49289;51.670;5.624;2023-06-22T00:20:08;6.20;;;4.40;;
63193;SDS011;49289;51.670;5.624;2023-06-22T00:21:56;5.80;;;4.80;;
63193;SDS011;49289;51.670;5.624;2023-06-22T00:23:43;6.70;;;4.90;;
63193;SDS011;49289;51.670;5.624;2023-06-22T00:25:31;7.20;;;5.30;;
63193;SDS011;49289;51.670;5.624;2023-06-22T00:27:18;7.50;;;5.50;;
63193;SDS011;49289;51.670;5.624;2023-06-22T00:29:05;7.20;;;5.60;;
63193;SDS011;49289;51.670;5.624;2023-06-22T00:30:52;7.90;;;5.70;;
63193;SDS011;49289;51.670;5.624;2023-06-22T00:32:39;7.00;;;5.30;;
63193;SDS011;49289;51.670;5.624;2023-06-22T00:34:26;6.80;;;5.70;;
63193;SDS011;49289;51.670;5.624;2023-06-22T00:36:13;7.80;;;5.90;;
63193;SDS011;49289;51.670;5.624;2023-06-22T00:38:00;7.60;;;5.30;;
63193;SDS011;49289;51.670;5.624;2023-06-22T00:39:47;8.20;;;5.90;;
63193;SDS011;49289;51.670;5.624;2023-06-22T00:41:34;6.60;;;5.80;;
63193;SDS011;49289;51.670;5.624;2023-06-22T00:43:21;7.20;;;5.40;;
63193;SDS011;49289;51.670;5.624;2023-06-22T00:45:08;6.60;;;5.90;;
63193;SDS011;49289;51.670;5.624;2023-06-22T00:46:56;6.30;;;5.70;;
63193;SDS011;49289;51.670;5.624;2023-06-22T00:48:44;9.10;;;6.60;;
63193;SDS011;49289;51.670;5.624;2023-06-22T00:50:33;7.00;;;5.80;;
63193;SDS011;49289;51.670;5.624;2023-06-22T00:52:21;7.00;;;5.80;;
63193;SDS011;49289;51.670;5.624;2023-06-22T00:54:09;7.00;;;5.70;;
63193;SDS011;49289;51.670;5.624;2023-06-22T00:55:56;7.50;;;5.70;;
63193;SDS011;49289;51.670;5.624;2023-06-22T00:57:43;7.50;;;5.80;;
63193;SDS011;49289;51.670;5.624;2023-06-22T00:59:31;8.20;;;6.30;;
63193;SDS011;49289;51.670;5.624;2023-06-22T01:01:19;8.60;;;6.10;;
63193;SDS011;49289;51.670;5.624;2023-06-22T01:03:06;9.80;;;6.00;;
63193;SDS011;49289;51.670;5.624;2023-06-22T01:04:53;9.20;;;6.80;;
63193;SDS011;49289;51.670;5.624;2023-06-22T01:06:41;8.60;;;6.60;;
63193;SDS011;49289;51.670;5.624;2023-06-22T01:08:29;7.70;;;6.60;;
63193;SDS011;49289;51.670;5.624;2023-06-22T01:10:18;7.90;;;6.40;;
63193;SDS011;49289;51.670;5.624;2023-06-22T01:12:05;9.10;;;6.40;;
63193;SDS011;49289;51.670;5.624;2023-06-22T01:13:54;7.50;;;6.60;;
63193;SDS011;49289;51.670;5.624;2023-06-22T01:15:42;8.90;;;6.70;;
63193;SDS011;49289;51.670;5.624;2023-06-22T01:17:29;9.50;;;6.50;;
63193;SDS011;49289;51.670;5.624;2023-06-22T01:19:20;8.50;;;6.10;;
63193;SDS011;49289;51.670;5.624;2023-06-22T01:21:11;8.50;;;6.50;;
63193;SDS011;49289;51.670;5.624;2023-06-22T01:23:02;7.90;;;6.30;;
63193;SDS011;49289;51.670;5.624;2023-06-22T01:24:55;8.20;;;6.70;;
63193;SDS011;49289;51.670;5.624;2023-06-22T01:26:51;8.50;;;6.60;;
63193;SDS011;49289;51.670;5.624;2023-06-22T01:30:33;8.50;;;6.50;;
63193;SDS011;49289;51.670;5.624;2023-06-22T01:32:20;9.50;;;6.60;;
63193;SDS011;49289;51.670;5.624;2023-06-22T01:34:07;7.40;;;6.30;;
63193;SDS011;49289;51.670;5.624;2023-06-22T01:35:54;8.40;;;6.50;;
63193;SDS011;49289;51.670;5.624;2023-06-22T01:37:42;9.80;;;7.30;;
63193;SDS011;49289;51.670;5.624;2023-06-22T01:39:31;9.70;;;7.20;;
63193;SDS011;49289;51.670;5.624;2023-06-22T01:41:19;9.20;;;7.30;;
63193;SDS011;49289;51.670;5.624;2023-06-22T01:43:08;8.20;;;7.10;;
63193;SDS011;49289;51.670;5.624;2023-06-22T01:44:56;8.00;;;6.60;;
63193;SDS011;49289;51.670;5.624;2023-06-22T01:46:43;8.20;;;6.60;;
63193;SDS011;49289;51.670;5.624;2023-06-22T01:48:30;8.50;;;6.50;;
63193;SDS011;49289;51.670;5.624;2023-06-22T01:50:18;7.80;;;6.70;;
63193;SDS011;49289;51.670;5.624;2023-06-22T01:52:07;7.40;;;6.30;;
63193;SDS011;49289;51.670;5.624;2023-06-22T01:53:55;8.40;;;6.80;;
63193;SDS011;49289;51.670;5.624;2023-06-22T01:55:43;8.50;;;7.00;;
63193;SDS011;49289;51.670;5.624;2023-06-22T01:57:30;8.40;;;6.80;;
63193;SDS011;49289;51.670;5.624;2023-06-22T01:59:18;9.30;;;6.80;;
63193;SDS011;49289;51.670;5.624;2023-06-22T02:01:09;8.70;;;6.70;;
63193;SDS011;49289;51.670;5.624;2023-06-22T02:02:57;8.80;;;6.80;;
63193;SDS011;49289;51.670;5.624;2023-06-22T02:04:42;7.50;;;6.50;;
63193;SDS011;49289;51.670;5.624;2023-06-22T02:06:31;7.90;;;6.20;;
63193;SDS011;49289;51.670;5.624;2023-06-22T02:08:19;7.90;;;6.70;;
63193;SDS011;49289;51.670;5.624;2023-06-22T02:10:06;8.90;;;6.50;;
63193;SDS011;49289;51.670;5.624;2023-06-22T02:11:54;11.20;;;8.00;;
63193;SDS011;49289;51.670;5.624;2023-06-22T02:13:43;10.30;;;7.70;;
63193;SDS011;49289;51.670;5.624;2023-06-22T02:15:31;8.70;;;7.20;;
63193;SDS011;49289;51.670;5.624;2023-06-22T02:17:18;10.10;;;7.40;;
63193;SDS011;49289;51.670;5.624;2023-06-22T02:19:06;8.90;;;7.00;;
63193;SDS011;49289;51.670;5.624;2023-06-22T02:20:53;7.80;;;6.40;;
63193;SDS011;49289;51.670;5.624;2023-06-22T02:22:40;9.20;;;7.20;;
63193;SDS011;49289;51.670;5.624;2023-06-22T02:24:27;10.50;;;7.20;;
63193;SDS011;49289;51.670;5.624;2023-06-22T02:26:16;9.20;;;7.00;;
63193;SDS011;49289;51.670;5.624;2023-06-22T02:28:04;9.40;;;7.00;;
63193;SDS011;49289;51.670;5.624;2023-06-22T02:29:52;9.20;;;7.30;;
63193;SDS011;49289;51.670;5.624;2023-06-22T02:31:39;8.10;;;7.00;;
63193;SDS011;49289;51.670;5.624;2023-06-22T02:33:26;9.50;;;7.40;;
63193;SDS011;49289;51.670;5.624;2023-06-22T02:35:14;11.10;;;7.30;;
63193;SDS011;49289;51.670;5.624;2023-06-22T02:37:01;9.50;;;6.90;;
63193;SDS011;49289;51.670;5.624;2023-06-22T02:38:48;8.70;;;7.20;;
63193;SDS011;49289;51.670;5.624;2023-06-22T02:40:36;9.70;;;6.90;;
63193;SDS011;49289;51.670;5.624;2023-06-22T02:42:24;8.80;;;7.40;;
63193;SDS011;49289;51.670;5.624;2023-06-22T02:44:13;9.90;;;7.50;;
63193;SDS011;49289;51.670;5.624;2023-06-22T02:46:01;10.00;;;7.60;;
63193;SDS011;49289;51.670;5.624;2023-06-22T02:47:48;10.20;;;7.10;;
63193;SDS011;49289;51.670;5.624;2023-06-22T02:49:35;9.10;;;7.20;;
63193;SDS011;49289;51.670;5.624;2023-06-22T02:51:22;9.40;;;7.10;;
63193;SDS011;49289;51.670;5.624;2023-06-22T02:53:09;10.00;;;7.20;;
63193;SDS011;49289;51.670;5.624;2023-06-22T02:54:57;9.90;;;7.30;;
63193;SDS011;49289;51.670;5.624;2023-06-22T02:56:45;10.80;;;7.30;;
63193;SDS011;49289;51.670;5.624;2023-06-22T02:58:34;9.80;;;7.40;;
63193;SDS011;49289;51.670;5.624;2023-06-22T03:00:22;9.70;;;7.30;;
63193;SDS011;49289;51.670;5.624;2023-06-22T03:02:09;9.20;;;7.30;;
63193;SDS011;49289;51.670;5.624;2023-06-22T03:03:58;8.70;;;7.30;;
63193;SDS011;49289;51.670;5.624;2023-06-22T03:05:45;10.40;;;7.00;;
63193;SDS011;49289;51.670;5.624;2023-06-22T03:07:32;10.50;;;6.80;;
63193;SDS011;49289;51.670;5.624;2023-06-22T03:09:19;9.50;;;7.30;;
63193;SDS011;49289;51.670;5.624;2023-06-22T03:11:06;11.40;;;7.60;;
63193;SDS011;49289;51.670;5.624;2023-06-22T03:12:54;9.30;;;7.30;;
63193;SDS011;49289;51.670;5.624;2023-06-22T03:14:42;8.90;;;6.90;;
63193;SDS011;49289;51.670;5.624;2023-06-22T03:16:31;8.70;;;7.30;;
63193;SDS011;49289;51.670;5.624;2023-06-22T03:18:19;8.40;;;7.50;;
63193;SDS011;49289;51.670;5.624;2023-06-22T03:20:06;9.80;;;7.50;;
63193;SDS011;49289;51.670;5.624;2023-06-22T03:21:55;11.30;;;7.40;;
63193;SDS011;49289;51.670;5.624;2023-06-22T03:23:43;10.00;;;7.80;;
63193;SDS011;49289;51.670;5.624;2023-06-22T03:25:30;9.10;;;7.40;;
63193;SDS011;49289;51.670;5.624;2023-06-22T03:27:17;10.10;;;7.80;;
63193;SDS011;49289;51.670;5.624;2023-06-22T03:29:04;10.20;;;7.90;;
63193;SDS011;49289;51.670;5.624;2023-06-22T03:30:53;12.70;;;8.20;;
63193;SDS011;49289;51.670;5.624;2023-06-22T03:32:40;10.10;;;7.90;;
63193;SDS011;49289;51.670;5.624;2023-06-22T03:34:27;9.50;;;8.10;;
63193;SDS011;49289;51.670;5.624;2023-06-22T03:36:14;10.70;;;7.80;;
63193;SDS011;49289;51.670;5.624;2023-06-22T03:38:01;10.90;;;7.60;;
63193;SDS011;49289;51.670;5.624;2023-06-22T03:39:48;10.90;;;7.80;;
63193;SDS011;49289;51.670;5.624;2023-06-22T03:41:36;10.60;;;8.00;;
63193;SDS011;49289;51.670;5.624;2023-06-22T03:43:25;10.70;;;8.10;;
63193;SDS011;49289;51.670;5.624;2023-06-22T03:45:13;12.10;;;8.30;;
63193;SDS011;49289;51.670;5.624;2023-06-22T03:47:01;11.00;;;8.20;;
63193;SDS011;49289;51.670;5.624;2023-06-22T03:48:49;12.30;;;8.60;;
63193;SDS011;49289;51.670;5.624;2023-06-22T03:50:36;10.40;;;7.80;;
63193;SDS011;49289;51.670;5.624;2023-06-22T03:52:24;12.70;;;7.90;;
63193;SDS011;49289;51.670;5.624;2023-06-22T03:54:13;10.00;;;8.10;;
63193;SDS011;49289;51.670;5.624;2023-06-22T03:56:00;12.00;;;8.90;;
63193;SDS011;49289;51.670;5.624;2023-06-22T03:57:47;11.30;;;8.40;;
63193;SDS011;49289;51.670;5.624;2023-06-22T03:59:34;11.60;;;8.00;;
63193;SDS011;49289;51.670;5.624;2023-06-22T04:01:21;10.40;;;8.00;;
63193;SDS011;49289;51.670;5.624;2023-06-22T04:03:09;9.70;;;8.10;;
63193;SDS011;49289;51.670;5.624;2023-06-22T04:04:58;12.10;;;8.30;;
63193;SDS011;49289;51.670;5.624;2023-06-22T04:06:46;11.60;;;8.60;;
63193;SDS011;49289;51.670;5.624;2023-06-22T04:08:33;11.30;;;8.00;;
63193;SDS011;49289;51.670;5.624;2023-06-22T04:10:48;13.40;;;8.80;;
63193;SDS011;49289;51.670;5.624;2023-06-22T04:12:35;11.80;;;8.80;;
63193;SDS011;49289;51.670;5.624;2023-06-22T04:14:24;11.10;;;8.90;;
63193;SDS011;49289;51.670;5.624;2023-06-22T04:16:12;11.70;;;8.70;;
63193;SDS011;49289;51.670;5.624;2023-06-22T04:18:00;11.20;;;9.00;;
63193;SDS011;49289;51.670;5.624;2023-06-22T04:19:47;13.20;;;9.20;;
63193;SDS011;49289;51.670;5.624;2023-06-22T04:21:34;12.20;;;9.20;;
63193;SDS011;49289;51.670;5.624;2023-06-22T04:23:22;13.40;;;9.20;;
63193;SDS011;49289;51.670;5.624;2023-06-22T04:25:11;11.70;;;8.80;;
63193;SDS011;49289;51.670;5.624;2023-06-22T04:26:58;10.70;;;8.60;;
63193;SDS011;49289;51.670;5.624;2023-06-22T04:28:46;12.20;;;9.20;;
63193;SDS011;49289;51.670;5.624;2023-06-22T04:30:35;11.30;;;8.60;;
63193;SDS011;49289;51.670;5.624;2023-06-22T04:32:22;11.10;;;8.60;;
63193;SDS011;49289;51.670;5.624;2023-06-22T04:34:09;12.90;;;8.70;;
63193;SDS011;49289;51.670;5.624;2023-06-22T04:35:56;12.40;;;9.20;;
63193;SDS011;49289;51.670;5.624;2023-06-22T04:37:45;11.80;;;9.20;;
63193;SDS011;49289;51.670;5.624;2023-06-22T04:39:32;11.30;;;8.80;;
63193;SDS011;49289;51.670;5.624;2023-06-22T04:41:19;11.90;;;8.60;;
63193;SDS011;49289;51.670;5.624;2023-06-22T04:43:06;10.90;;;9.20;;
63193;SDS011;49289;51.670;5.624;2023-06-22T04:44:53;12.10;;;9.30;;
63193;SDS011;49289;51.670;5.624;2023-06-22T04:46:40;13.50;;;9.20;;
63193;SDS011;49289;51.670;5.624;2023-06-22T04:48:29;13.60;;;9.60;;
63193;SDS011;49289;51.670;5.624;2023-06-22T04:50:16;11.70;;;9.40;;
63193;SDS011;49289;51.670;5.624;2023-06-22T04:52:03;14.60;;;10.30;;
63193;SDS011;49289;51.670;5.624;2023-06-22T04:53:51;14.00;;;9.50;;
63193;SDS011;49289;51.670;5.624;2023-06-22T04:55:39;12.60;;;9.60;;
63193;SDS011;49289;51.670;5.624;2023-06-22T04:57:28;12.70;;;9.90;;
63193;SDS011;49289;51.670;5.624;2023-06-22T04:59:16;12.50;;;9.90;;
63193;SDS011;49289;51.670;5.624;2023-06-22T05:01:03;14.10;;;9.70;;
63193;SDS011;49289;51.670;5.624;2023-06-22T05:02:50;11.70;;;9.40;;
63193;SDS011;49289;51.670;5.624;2023-06-22T05:04:37;13.90;;;9.60;;
63193;SDS011;49289;51.670;5.624;2023-06-22T05:06:27;13.50;;;9.70;;
63193;SDS011;49289;51.670;5.624;2023-06-22T05:08:16;13.40;;;10.00;;
63193;SDS011;49289;51.670;5.624;2023-06-22T05:10:02;13.00;;;9.70;;
63193;SDS011;49289;51.670;5.624;2023-06-22T05:11:51;15.60;;;10.40;;
63193;SDS011;49289;51.670;5.624;2023-06-22T05:13:38;11.60;;;9.30;;
63193;SDS011;49289;51.670;5.624;2023-06-22T05:15:25;12.50;;;9.60;;
63193;SDS011;49289;51.670;5.624;2023-06-22T05:17:12;11.50;;;9.30;;
63193;SDS011;49289;51.670;5.624;2023-06-22T05:19:00;11.20;;;9.60;;
63193;SDS011;49289;51.670;5.624;2023-06-22T05:20:48;12.50;;;9.50;;
63193;SDS011;49289;51.670;5.624;2023-06-22T05:22:37;13.00;;;9.90;;
63193;SDS011;49289;51.670;5.624;2023-06-22T05:24:25;12.30;;;9.80;;
63193;SDS011;49289;51.670;5.624;2023-06-22T05:26:12;11.50;;;9.10;;
63193;SDS011;49289;51.670;5.624;2023-06-22T05:27:59;14.80;;;10.20;;
63193;SDS011;49289;51.670;5.624;2023-06-22T05:29:46;14.70;;;9.90;;
63193;SDS011;49289;51.670;5.624;2023-06-22T05:31:33;12.00;;;9.80;;
63193;SDS011;49289;51.670;5.624;2023-06-22T05:33:20;13.40;;;10.30;;
63193;SDS011;49289;51.670;5.624;2023-06-22T05:35:09;13.10;;;10.00;;
63193;SDS011;49289;51.670;5.624;2023-06-22T05:36:56;13.90;;;9.90;;
63193;SDS011;49289;51.670;5.624;2023-06-22T05:38:43;16.40;;;10.50;;
63193;SDS011;49289;51.670;5.624;2023-06-22T05:40:30;13.90;;;10.00;;
63193;SDS011;49289;51.670;5.624;2023-06-22T05:42:17;15.00;;;10.30;;
63193;SDS011;49289;51.670;5.624;2023-06-22T05:44:05;12.80;;;10.50;;
63193;SDS011;49289;51.670;5.624;2023-06-22T05:45:53;12.80;;;10.40;;
63193;SDS011;49289;51.670;5.624;2023-06-22T05:47:42;14.40;;;10.10;;
63193;SDS011;49289;51.670;5.624;2023-06-22T05:49:30;12.40;;;10.80;;
63193;SDS011;49289;51.670;5.624;2023-06-22T05:51:18;13.20;;;10.20;;
63193;SDS011;49289;51.670;5.624;2023-06-22T05:53:06;12.50;;;10.00;;
63193;SDS011;49289;51.670;5.624;2023-06-22T05:54:54;13.20;;;10.30;;
63193;SDS011;49289;51.670;5.624;2023-06-22T05:56:41;14.90;;;10.50;;
63193;SDS011;49289;51.670;5.624;2023-06-22T05:58:28;14.00;;;11.20;;
63193;SDS011;49289;51.670;5.624;2023-06-22T06:00:16;12.50;;;10.50;;
63193;SDS011;49289;51.670;5.624;2023-06-22T06:02:04;14.70;;;10.40;;
63193;SDS011;49289;51.670;5.624;2023-06-22T06:03:51;14.50;;;11.20;;
63193;SDS011;49289;51.670;5.624;2023-06-22T06:05:38;13.00;;;10.50;;
63193;SDS011;49289;51.670;5.624;2023-06-22T06:07:26;13.50;;;10.70;;
63193;SDS011;49289;51.670;5.624;2023-06-22T06:09:15;13.60;;;11.30;;
63193;SDS011;49289;51.670;5.624;2023-06-22T06:11:02;13.00;;;10.70;;
63193;SDS011;49289;51.670;5.624;2023-06-22T06:12:51;14.80;;;11.30;;
63193;SDS011;49289;51.670;5.624;2023-06-22T06:14:39;15.30;;;11.20;;
63193;SDS011;49289;51.670;5.624;2023-06-22T06:16:27;13.40;;;10.80;;
63193;SDS011;49289;51.670;5.624;2023-06-22T06:18:14;14.60;;;11.60;;
63193;SDS011;49289;51.670;5.624;2023-06-22T06:20:01;14.60;;;11.60;;
63193;SDS011;49289;51.670;5.624;2023-06-22T06:21:49;14.70;;;11.20;;
63193;SDS011;49289;51.670;5.624;2023-06-22T06:23:36;14.20;;;11.20;;
63193;SDS011;49289;51.670;5.624;2023-06-22T06:25:24;15.60;;;11.80;;
63193;SDS011;49289;51.670;5.624;2023-06-22T06:27:13;14.30;;;11.60;;
63193;SDS011;49289;51.670;5.624;2023-06-22T06:29:01;13.50;;;11.50;;
63193;SDS011;49289;51.670;5.624;2023-06-22T06:30:48;14.70;;;11.50;;
63193;SDS011;49289;51.670;5.624;2023-06-22T06:32:35;15.40;;;11.80;;
63193;SDS011;49289;51.670;5.624;2023-06-22T06:34:22;16.90;;;11.90;;
63193;SDS011;49289;51.670;5.624;2023-06-22T06:36:11;13.40;;;11.60;;
63193;SDS011;49289;51.670;5.624;2023-06-22T06:37:58;15.70;;;12.40;;
63193;SDS011;49289;51.670;5.624;2023-06-22T06:39:45;14.30;;;11.60;;
63193;SDS011;49289;51.670;5.624;2023-06-22T06:41:32;15.90;;;11.80;;
63193;SDS011;49289;51.670;5.624;2023-06-22T06:43:19;39.10;;;18.90;;
63193;SDS011;49289;51.670;5.624;2023-06-22T06:45:06;85.90;;;31.80;;
63193;SDS011;49289;51.670;5.624;2023-06-22T06:46:54;62.10;;;26.20;;
63193;SDS011;49289;51.670;5.624;2023-06-22T06:48:41;13.90;;;12.40;;
63193;SDS011;49289;51.670;5.624;2023-06-22T06:50:28;14.00;;;12.10;;
63193;SDS011;49289;51.670;5.624;2023-06-22T06:52:17;32.90;;;19.20;;
63193;SDS011;49289;51.670;5.624;2023-06-22T06:54:05;20.20;;;14.40;;
63193;SDS011;49289;51.670;5.624;2023-06-22T06:55:52;14.50;;;11.50;;
63193;SDS011;49289;51.670;5.624;2023-06-22T06:57:39;20.80;;;14.30;;
63193;SDS011;49289;51.670;5.624;2023-06-22T06:59:26;19.50;;;13.60;;
63193;SDS011;49289;51.670;5.624;2023-06-22T07:01:13;21.70;;;13.30;;
63193;SDS011;49289;51.670;5.624;2023-06-22T07:03:00;46.70;;;24.90;;
63193;SDS011;49289;51.670;5.624;2023-06-22T07:04:49;15.60;;;12.50;;
63193;SDS011;49289;51.670;5.624;2023-06-22T07:06:37;18.50;;;12.90;;
63193;SDS011;49289;51.670;5.624;2023-06-22T07:08:25;15.00;;;11.40;;
63193;SDS011;49289;51.670;5.624;2023-06-22T07:10:12;16.10;;;12.10;;
63193;SDS011;49289;51.670;5.624;2023-06-22T07:12:01;20.80;;;14.30;;
63193;SDS011;49289;51.670;5.624;2023-06-22T07:13:48;15.00;;;11.70;;
63193;SDS011;49289;51.670;5.624;2023-06-22T07:15:35;15.20;;;11.00;;
63193;SDS011;49289;51.670;5.624;2023-06-22T07:17:23;15.80;;;12.50;;
63193;SDS011;49289;51.670;5.624;2023-06-22T07:19:12;13.30;;;11.70;;
63193;SDS011;49289;51.670;5.624;2023-06-22T07:20:59;16.00;;;12.60;;
63193;SDS011;49289;51.670;5.624;2023-06-22T07:22:47;14.30;;;11.70;;
63193;SDS011;49289;51.670;5.624;2023-06-22T07:24:35;16.60;;;11.50;;
63193;SDS011;49289;51.670;5.624;2023-06-22T07:26:23;15.20;;;11.80;;
63193;SDS011;49289;51.670;5.624;2023-06-22T07:28:12;13.40;;;11.20;;
63193;SDS011;49289;51.670;5.624;2023-06-22T07:30:00;13.60;;;11.20;;
63193;SDS011;49289;51.670;5.624;2023-06-22T07:31:47;14.20;;;11.20;;
63193;SDS011;49289;51.670;5.624;2023-06-22T07:33:34;13.90;;;11.30;;
63193;SDS011;49289;51.670;5.624;2023-06-22T07:35:21;15.00;;;11.80;;
63193;SDS011;49289;51.670;5.624;2023-06-22T07:37:10;14.50;;;11.80;;
63193;SDS011;49289;51.670;5.624;2023-06-22T07:38:57;14.30;;;11.30;;
63193;SDS011;49289;51.670;5.624;2023-06-22T07:40:45;13.90;;;11.40;;
63193;SDS011;49289;51.670;5.624;2023-06-22T07:42:31;15.50;;;11.30;;
63193;SDS011;49289;51.670;5.624;2023-06-22T07:44:19;16.50;;;11.50;;
63193;SDS011;49289;51.670;5.624;2023-06-22T07:46:07;15.30;;;11.50;;
63193;SDS011;49289;51.670;5.624;2023-06-22T07:47:55;15.00;;;11.80;;
63193;SDS011;49289;51.670;5.624;2023-06-22T07:49:43;13.80;;;10.80;;
63193;SDS011;49289;51.670;5.624;2023-06-22T07:51:32;15.00;;;11.40;;
63193;SDS011;49289;51.670;5.624;2023-06-22T07:53:20;13.10;;;11.30;;
63193;SDS011;49289;51.670;5.624;2023-06-22T07:55:08;12.40;;;10.50;;
63193;SDS011;49289;51.670;5.624;2023-06-22T07:56:55;13.60;;;10.70;;
63193;SDS011;49289;51.670;5.624;2023-06-22T07:58:42;14.30;;;10.90;;
63193;SDS011;49289;51.670;5.624;2023-06-22T08:00:31;14.70;;;11.20;;
63193;SDS011;49289;51.670;5.624;2023-06-22T08:02:20;13.00;;;11.20;;
63193;SDS011;49289;51.670;5.624;2023-06-22T08:04:07;15.00;;;10.80;;
63193;SDS011;49289;51.670;5.624;2023-06-22T08:05:54;16.30;;;11.40;;
63193;SDS011;49289;51.670;5.624;2023-06-22T08:07:41;13.50;;;10.80;;
63193;SDS011;49289;51.670;5.624;2023-06-22T08:09:30;13.90;;;11.00;;
63193;SDS011;49289;51.670;5.624;2023-06-22T08:11:17;14.40;;;11.10;;
63193;SDS011;49289;51.670;5.624;2023-06-22T08:13:04;12.70;;;10.50;;
63193;SDS011;49289;51.670;5.624;2023-06-22T08:14:51;15.30;;;11.00;;
63193;SDS011;49289;51.670;5.624;2023-06-22T08:16:40;13.40;;;11.20;;
63193;SDS011;49289;51.670;5.624;2023-06-22T08:18:29;13.40;;;10.80;;
63193;SDS011;49289;51.670;5.624;2023-06-22T08:20:17;14.10;;;10.90;;
63193;SDS011;49289;51.670;5.624;2023-06-22T08:22:04;13.50;;;10.20;;
63193;SDS011;49289;51.670;5.624;2023-06-22T08:23:51;11.90;;;9.80;;
63193;SDS011;49289;51.670;5.624;2023-06-22T08:25:38;11.00;;;9.80;;
63193;SDS011;49289;51.670;5.624;2023-06-22T08:27:26;13.90;;;9.70;;
63193;SDS011;49289;51.670;5.624;2023-06-22T08:29:14;13.80;;;10.20;;
63193;SDS011;49289;51.670;5.624;2023-06-22T08:31:02;10.70;;;9.40;;
63193;SDS011;49289;51.670;5.624;2023-06-22T08:32:51;13.30;;;10.10;;
63193;SDS011;49289;51.670;5.624;2023-06-22T08:34:38;13.00;;;9.10;;
63193;SDS011;49289;51.670;5.624;2023-06-22T08:36:25;10.70;;;9.20;;
63193;SDS011;49289;51.670;5.624;2023-06-22T08:38:13;11.20;;;9.10;;
63193;SDS011;49289;51.670;5.624;2023-06-22T08:40:00;11.60;;;8.90;;
63193;SDS011;49289;51.670;5.624;2023-06-22T08:41:47;10.70;;;8.70;;
63193;SDS011;49289;51.670;5.624;2023-06-22T08:43:34;10.30;;;8.80;;
63193;SDS011;49289;51.670;5.624;2023-06-22T08:45:21;10.70;;;9.30;;
63193;SDS011;49289;51.670;5.624;2023-06-22T08:47:09;11.10;;;8.20;;
63193;SDS011;49289;51.670;5.624;2023-06-22T08:48:58;10.40;;;7.90;;
63193;SDS011;49289;51.670;5.624;2023-06-22T08:50:44;11.00;;;8.50;;
63193;SDS011;49289;51.670;5.624;2023-06-22T08:52:31;9.70;;;8.30;;
63193;SDS011;49289;51.670;5.624;2023-06-22T08:54:18;11.10;;;8.50;;
63193;SDS011;49289;51.670;5.624;2023-06-22T08:56:05;12.60;;;9.50;;
63193;SDS011;49289;51.670;5.624;2023-06-22T08:57:53;9.90;;;8.30;;
63193;SDS011;49289;51.670;5.624;2023-06-22T08:59:42;9.30;;;7.70;;
63193;SDS011;49289;51.670;5.624;2023-06-22T09:01:30;11.20;;;7.50;;
63193;SDS011;49289;51.670;5.624;2023-06-22T09:03:18;10.20;;;7.70;;
63193;SDS011;49289;51.670;5.624;2023-06-22T09:05:05;12.00;;;7.80;;
63193;SDS011;49289;51.670;5.624;2023-06-22T09:06:53;12.10;;;8.30;;
63193;SDS011;49289;51.670;5.624;2023-06-22T09:08:41;10.50;;;7.70;;
63193;SDS011;49289;51.670;5.624;2023-06-22T09:10:30;12.40;;;8.50;;
63193;SDS011;49289;51.670;5.624;2023-06-22T09:12:18;14.50;;;8.40;;
63193;SDS011;49289;51.670;5.624;2023-06-22T09:14:05;9.40;;;7.50;;
63193;SDS011;49289;51.670;5.624;2023-06-22T09:15:52;9.60;;;8.10;;
63193;SDS011;49289;51.670;5.624;2023-06-22T09:17:40;9.90;;;7.40;;
63193;SDS011;49289;51.670;5.624;2023-06-22T09:19:26;9.70;;;7.60;;
63193;SDS011;49289;51.670;5.624;2023-06-22T09:21:13;10.60;;;7.50;;
63193;SDS011;49289;51.670;5.624;2023-06-22T09:23:01;10.30;;;8.10;;
63193;SDS011;49289;51.670;5.624;2023-06-22T09:24:48;12.00;;;8.30;;
63193;SDS011;49289;51.670;5.624;2023-06-22T09:26:35;10.40;;;8.30;;
63193;SDS011;49289;51.670;5.624;2023-06-22T09:28:23;9.30;;;7.80;;
63193;SDS011;49289;51.670;5.624;2023-06-22T09:30:12;9.30;;;7.80;;
63193;SDS011;49289;51.670;5.624;2023-06-22T09:31:59;9.70;;;8.10;;
63193;SDS011;49289;51.670;5.624;2023-06-22T09:33:48;9.00;;;7.70;;
63193;SDS011;49289;51.670;5.624;2023-06-22T09:35:36;10.10;;;7.80;;
63193;SDS011;49289;51.670;5.624;2023-06-22T09:37:23;9.00;;;7.90;;
63193;SDS011;49289;51.670;5.624;2023-06-22T09:39:10;10.10;;;8.20;;
63193;SDS011;49289;51.670;5.624;2023-06-22T09:40:57;8.60;;;7.70;;
63193;SDS011;49289;51.670;5.624;2023-06-22T09:42:44;10.00;;;7.60;;
63193;SDS011;49289;51.670;5.624;2023-06-22T09:44:31;8.40;;;7.40;;
63193;SDS011;49289;51.670;5.624;2023-06-22T09:46:18;10.00;;;8.30;;
63193;SDS011;49289;51.670;5.624;2023-06-22T09:48:07;16.20;;;7.30;;
63193;SDS011;49289;51.670;5.624;2023-06-22T09:49:55;10.30;;;8.40;;
63193;SDS011;49289;51.670;5.624;2023-06-22T09:51:43;10.80;;;7.80;;
63193;SDS011;49289;51.670;5.624;2023-06-22T09:53:31;9.50;;;7.70;;
63193;SDS011;49289;51.670;5.624;2023-06-22T09:55:18;11.40;;;8.00;;
63193;SDS011;49289;51.670;5.624;2023-06-22T09:57:05;12.00;;;8.20;;
63193;SDS011;49289;51.670;5.624;2023-06-22T09:58:52;10.80;;;8.30;;
63193;SDS011;49289;51.670;5.624;2023-06-22T10:00:39;11.20;;;8.40;;
63193;SDS011;49289;51.670;5.624;2023-06-22T10:02:26;8.60;;;7.70;;
63193;SDS011;49289;51.670;5.624;2023-06-22T10:04:14;8.80;;;7.40;;
63193;SDS011;49289;51.670;5.624;2023-06-22T10:06:03;7.90;;;7.00;;
63193;SDS011;49289;51.670;5.624;2023-06-22T10:07:51;8.90;;;7.20;;
63193;SDS011;49289;51.670;5.624;2023-06-22T10:09:39;8.50;;;7.50;;
63193;SDS011;49289;51.670;5.624;2023-06-22T10:11:26;10.40;;;7.90;;
63193;SDS011;49289;51.670;5.624;2023-06-22T10:13:13;9.30;;;7.50;;
63193;SDS011;49289;51.670;5.624;2023-06-22T10:15:00;12.00;;;8.20;;
63193;SDS011;49289;51.670;5.624;2023-06-22T10:16:49;9.10;;;8.00;;
63193;SDS011;49289;51.670;5.624;2023-06-22T10:18:36;10.50;;;8.20;;
63193;SDS011;49289;51.670;5.624;2023-06-22T10:20:23;12.00;;;8.70;;
63193;SDS011;49289;51.670;5.624;2023-06-22T10:22:10;10.70;;;8.20;;
63193;SDS011;49289;51.670;5.624;2023-06-22T10:23:59;12.50;;;8.40;;
63193;SDS011;49289;51.670;5.624;2023-06-22T10:25:47;12.30;;;8.90;;
63193;SDS011;49289;51.670;5.624;2023-06-22T10:27:34;11.00;;;8.80;;
63193;SDS011;49289;51.670;5.624;2023-06-22T10:29:21;11.40;;;9.40;;
63193;SDS011;49289;51.670;5.624;2023-06-22T10:31:08;12.40;;;9.30;;
63193;SDS011;49289;51.670;5.624;2023-06-22T10:32:56;11.20;;;8.80;;
63193;SDS011;49289;51.670;5.624;2023-06-22T10:34:44;11.70;;;9.40;;
63193;SDS011;49289;51.670;5.624;2023-06-22T10:36:33;10.40;;;9.10;;
63193;SDS011;49289;51.670;5.624;2023-06-22T10:38:21;12.90;;;9.60;;
63193;SDS011;49289;51.670;5.624;2023-06-22T10:40:10;12.10;;;9.20;;
63193;SDS011;49289;51.670;5.624;2023-06-22T10:41:58;11.90;;;9.90;;